createdAt,value
2019-02-16T00:01:11.442Z,11.77
2019-02-16T00:03:40.652Z,10.60
2019-02-16T00:06:09.783Z,10.90
2019-02-16T00:08:38.905Z,10.60
2019-02-16T00:11:08.153Z,26.13
2019-02-16T00:13:37.291Z,19.83
2019-02-16T00:16:06.409Z,19.47
2019-02-16T00:18:35.529Z,25.00
2019-02-16T00:21:04.711Z,31.83
2019-02-16T00:23:33.888Z,25.40
2019-02-16T00:26:03.033Z,44.27
2019-02-16T00:28:32.189Z,44.07
2019-02-16T00:31:01.331Z,46.10
2019-02-16T00:33:30.478Z,41.77
2019-02-16T00:35:59.579Z,35.17
2019-02-16T00:38:28.717Z,30.73
2019-02-16T00:40:57.865Z,23.50
2019-02-16T00:43:27.061Z,22.43
2019-02-16T00:45:56.249Z,18.63
2019-02-16T00:48:25.474Z,17.77
2019-02-16T00:50:54.596Z,19.27
2019-02-16T00:53:23.755Z,22.03
2019-02-16T00:55:52.964Z,22.37
2019-02-16T00:58:22.121Z,18.60
2019-02-16T01:00:51.352Z,20.07
2019-02-16T01:03:20.484Z,14.77
2019-02-16T01:05:49.703Z,13.60
2019-02-16T01:08:18.835Z,12.73
2019-02-16T01:10:48.086Z,12.10
2019-02-16T01:13:17.448Z,10.47
2019-02-16T01:15:46.602Z,11.10
2019-02-16T01:18:15.740Z,12.43
2019-02-16T01:20:44.856Z,11.50
2019-02-16T01:23:14.000Z,11.23
2019-02-16T01:25:43.116Z,11.17
2019-02-16T01:28:12.208Z,10.47
2019-02-16T01:30:41.353Z,11.47
2019-02-16T01:33:10.468Z,11.07
2019-02-16T01:35:39.624Z,11.37
2019-02-16T01:38:08.729Z,18.43
2019-02-16T01:40:37.961Z,17.30
2019-02-16T01:43:07.168Z,12.07
2019-02-16T01:45:36.348Z,11.13
2019-02-16T01:48:05.486Z,12.77
2019-02-16T01:50:35.070Z,11.13
2019-02-16T01:53:04.227Z,10.87
2019-02-16T01:55:33.396Z,14.30
2019-02-16T01:58:02.526Z,15.27
2019-02-16T02:00:31.710Z,12.50
2019-02-16T02:03:00.891Z,10.93
2019-02-16T02:05:30.028Z,12.13
2019-02-16T02:07:59.164Z,9.93
2019-02-16T02:10:28.511Z,10.20
2019-02-16T02:12:57.668Z,12.03
2019-02-16T02:15:26.876Z,16.93
2019-02-16T02:17:56.041Z,15.17
2019-02-16T02:20:25.357Z,14.20
2019-02-16T02:22:54.497Z,12.93
2019-02-16T02:25:23.649Z,12.77
2019-02-16T02:27:52.787Z,12.13
2019-02-16T02:30:22.035Z,10.13
2019-02-16T02:32:51.183Z,11.37
2019-02-16T02:35:20.352Z,10.40
2019-02-16T02:37:49.499Z,11.30
2019-02-16T02:40:18.634Z,11.87
2019-02-16T02:42:47.775Z,11.27
2019-02-16T02:45:16.926Z,11.00
2019-02-16T02:47:46.044Z,11.10
2019-02-16T02:50:15.214Z,11.17
2019-02-16T02:52:44.323Z,11.10
2019-02-16T02:55:13.486Z,10.03
2019-02-16T02:57:42.612Z,14.17
2019-02-16T03:00:12.265Z,11.23
2019-02-16T03:02:41.455Z,10.83
2019-02-16T03:05:10.585Z,10.37
2019-02-16T03:07:39.699Z,10.60
2019-02-16T03:10:08.858Z,10.17
2019-02-16T03:12:38.041Z,9.73
2019-02-16T03:15:07.789Z,9.70
2019-02-16T03:17:36.951Z,10.33
2019-02-16T03:20:06.288Z,10.10
2019-02-16T03:23:13.276Z,10.17
2019-02-16T03:25:45.057Z,8.93
2019-02-16T03:28:47.712Z,8.87
2019-02-16T03:32:05.754Z,7.87
2019-02-16T03:34:50.146Z,8.73
2019-02-16T03:37:48.233Z,8.17
2019-02-16T03:40:17.611Z,9.63
2019-02-16T03:42:46.746Z,8.60
2019-02-16T03:45:15.921Z,7.80
2019-02-16T03:47:45.057Z,8.63
2019-02-16T03:50:14.619Z,8.13
2019-02-16T03:52:43.795Z,13.27
2019-02-16T03:55:12.932Z,8.83
2019-02-16T03:57:42.088Z,13.47
2019-02-16T04:00:11.345Z,8.70
2019-02-16T04:02:40.473Z,9.73
2019-02-16T04:05:09.725Z,10.53
2019-02-16T04:07:38.864Z,9.13
2019-02-16T04:10:08.331Z,8.70
2019-02-16T04:12:37.443Z,9.97
2019-02-16T04:15:06.582Z,8.33
2019-02-16T04:17:35.719Z,8.87
2019-02-16T04:20:05.461Z,8.10
2019-02-16T04:22:34.626Z,8.47
2019-02-16T04:25:03.811Z,9.40
2019-02-16T04:27:32.939Z,9.90
2019-02-16T04:30:02.104Z,10.33
2019-02-16T04:32:31.324Z,9.40
2019-02-16T04:35:00.516Z,8.73
2019-02-16T04:37:29.648Z,7.47
2019-02-16T04:39:58.936Z,9.73
2019-02-16T04:42:28.079Z,8.90
2019-02-16T04:44:57.224Z,7.77
2019-02-16T04:47:26.368Z,6.60
2019-02-16T04:49:55.518Z,7.47
2019-02-16T04:52:34.025Z,7.40
2019-02-16T04:54:55.475Z,8.83
2019-02-16T04:57:24.616Z,8.20
2019-02-16T04:59:53.655Z,8.17
2019-02-16T05:02:22.918Z,8.90
2019-02-16T05:04:52.054Z,8.20
2019-02-16T05:07:21.259Z,9.13
2019-02-16T05:09:50.403Z,8.03
2019-02-16T05:12:19.518Z,8.43
2019-02-16T05:14:48.636Z,7.77
2019-02-16T05:17:17.752Z,8.07
2019-02-16T05:19:46.897Z,9.97
2019-02-16T05:22:16.025Z,12.60
2019-02-16T05:24:45.708Z,8.73
2019-02-16T05:27:14.832Z,8.10
2019-02-16T05:29:44.023Z,12.53
2019-02-16T05:32:13.130Z,8.50
2019-02-16T05:34:42.352Z,9.17
2019-02-16T05:37:11.478Z,8.73
2019-02-16T05:39:40.620Z,9.07
2019-02-16T05:42:09.772Z,8.87
2019-02-16T05:44:38.876Z,9.17
2019-02-16T05:47:08.070Z,8.43
2019-02-16T05:49:37.266Z,7.97
2019-02-16T05:52:06.387Z,8.60
2019-02-16T05:54:35.546Z,9.10
2019-02-16T05:57:04.680Z,11.13
2019-02-16T05:59:33.828Z,9.97
2019-02-16T06:02:02.964Z,11.10
2019-02-16T06:04:32.098Z,11.73
2019-02-16T06:07:01.197Z,9.30
2019-02-16T06:09:30.356Z,10.03
2019-02-16T06:11:59.467Z,8.10
2019-02-16T06:14:28.584Z,8.17
2019-02-16T06:16:57.731Z,9.00
2019-02-16T06:19:26.868Z,10.30
2019-02-16T06:21:56.023Z,10.93
2019-02-16T06:24:25.200Z,12.63
2019-02-16T06:26:54.328Z,10.90
2019-02-16T06:29:23.496Z,12.97
2019-02-16T06:31:52.604Z,13.50
2019-02-16T06:34:21.741Z,12.83
2019-02-16T06:36:50.952Z,13.33
2019-02-16T06:39:20.082Z,13.03
2019-02-16T06:41:49.350Z,12.13
2019-02-16T06:44:18.582Z,12.07
2019-02-16T06:46:47.753Z,11.20
2019-02-16T06:49:16.872Z,10.83
2019-02-16T06:51:46.028Z,11.30
2019-02-16T06:54:15.389Z,9.70
2019-02-16T06:57:02.087Z,9.70
2019-02-16T06:59:31.222Z,10.50
2019-02-16T07:02:00.328Z,12.90
2019-02-16T07:04:29.633Z,11.27
2019-02-16T07:06:58.768Z,11.70
2019-02-16T07:09:27.937Z,15.13
2019-02-16T07:11:57.147Z,22.67
2019-02-16T07:14:26.300Z,24.97
2019-02-16T07:17:20.375Z,23.93
2019-02-16T07:19:52.658Z,32.97
2019-02-16T07:22:21.803Z,36.87
2019-02-16T07:24:50.930Z,32.17
2019-02-16T07:27:20.144Z,24.40
2019-02-16T07:29:49.466Z,27.10
2019-02-16T07:32:18.979Z,25.30
2019-02-16T07:34:48.100Z,22.90
2019-02-16T07:37:17.248Z,22.83
2019-02-16T07:39:46.384Z,25.57
2019-02-16T07:42:15.533Z,27.73
2019-02-16T07:45:09.664Z,29.83
2019-02-16T07:48:00.962Z,25.80
2019-02-16T07:50:39.129Z,23.97
2019-02-16T07:53:31.402Z,19.23
2019-02-16T07:56:15.945Z,19.10
2019-02-16T07:59:11.159Z,14.20
2019-02-16T08:01:47.120Z,16.37
2019-02-16T08:04:34.384Z,16.00
2019-02-16T08:07:21.439Z,15.90
2019-02-16T08:10:12.663Z,17.63
2019-02-16T08:13:06.627Z,16.27
2019-02-16T08:16:07.158Z,17.53
2019-02-16T08:18:51.635Z,20.07
2019-02-16T08:21:38.456Z,16.87
2019-02-16T08:24:42.022Z,18.60
2019-02-16T08:27:38.121Z,17.10
2019-02-16T08:30:32.439Z,16.10
2019-02-16T08:33:12.748Z,15.03
2019-02-16T08:36:00.946Z,16.10
2019-02-16T08:38:58.255Z,14.10
2019-02-16T08:41:39.792Z,15.17
2019-02-16T08:44:17.640Z,13.43
2019-02-16T08:47:20.832Z,13.33
2019-02-16T08:50:07.703Z,14.50
2019-02-16T08:52:48.281Z,12.77
2019-02-16T08:55:40.263Z,11.90
2019-02-16T08:58:40.457Z,13.47
2019-02-16T09:01:23.293Z,16.00
2019-02-16T09:04:14.223Z,21.20
2019-02-16T09:07:06.000Z,17.33
2019-02-16T09:09:47.196Z,15.10
2019-02-16T09:12:29.803Z,16.00
2019-02-16T09:15:22.536Z,14.23
2019-02-16T09:18:07.749Z,14.80
2019-02-16T09:20:55.940Z,14.27
2019-02-16T09:23:47.052Z,14.07
2019-02-16T09:26:26.829Z,14.70
2019-02-16T09:29:27.308Z,16.17
2019-02-16T09:32:14.107Z,15.80
2019-02-16T09:34:51.299Z,15.17
2019-02-16T09:37:28.873Z,15.47
2019-02-16T09:40:23.031Z,13.93
2019-02-16T09:43:09.768Z,14.17
2019-02-16T09:45:54.484Z,14.63
2019-02-16T09:48:29.116Z,17.53
2019-02-16T09:51:26.540Z,18.10
2019-02-16T09:54:17.906Z,15.80
2019-02-16T09:57:09.150Z,15.47
2019-02-16T10:00:06.543Z,15.43
2019-02-16T10:02:46.204Z,16.40
2019-02-16T10:05:27.164Z,18.57
2019-02-16T10:08:24.572Z,17.67
2019-02-16T10:11:11.386Z,21.70
2019-02-16T10:13:58.566Z,16.93
2019-02-16T10:16:49.746Z,15.43
2019-02-16T10:19:36.896Z,17.23
2019-02-16T10:22:28.096Z,17.43
2019-02-16T10:25:19.336Z,13.60
2019-02-16T10:28:07.540Z,15.90
2019-02-16T10:30:54.700Z,15.57
2019-02-16T10:33:36.200Z,14.87
2019-02-16T10:36:24.375Z,16.33
2019-02-16T10:39:30.618Z,14.87
2019-02-16T10:42:13.627Z,17.50
2019-02-16T10:44:59.717Z,17.03
2019-02-16T10:47:45.287Z,15.80
2019-02-16T10:50:32.005Z,17.77
2019-02-16T10:53:19.237Z,14.23
2019-02-16T10:56:04.663Z,15.00
2019-02-16T10:58:43.743Z,13.07
2019-02-16T11:01:34.967Z,13.77
2019-02-16T11:04:26.162Z,12.03
2019-02-16T11:07:00.239Z,13.23
2019-02-16T11:09:47.273Z,13.80
2019-02-16T11:12:25.289Z,13.40
2019-02-16T11:15:22.739Z,14.47
2019-02-16T11:18:09.743Z,13.00
2019-02-16T11:20:56.776Z,16.37
2019-02-16T11:23:53.200Z,13.70
2019-02-16T11:26:50.360Z,13.77
2019-02-16T11:29:38.539Z,13.10
2019-02-16T11:32:32.791Z,13.47
2019-02-16T11:35:35.999Z,13.97
2019-02-16T11:38:36.242Z,13.20
2019-02-16T11:41:24.476Z,13.53
2019-02-16T11:44:21.496Z,14.20
2019-02-16T11:47:03.343Z,14.33
2019-02-16T11:49:48.482Z,15.10
2019-02-16T11:52:33.758Z,14.43
2019-02-16T11:55:12.364Z,15.77
2019-02-16T11:57:57.873Z,14.10
2019-02-16T12:00:40.242Z,13.93
2019-02-16T12:03:27.561Z,15.40
2019-02-16T12:06:13.415Z,17.70
2019-02-16T12:08:58.731Z,19.37
2019-02-16T12:11:55.773Z,18.30
2019-02-16T12:14:43.952Z,25.07
2019-02-16T12:17:26.844Z,16.00
2019-02-16T12:20:10.071Z,14.37
2019-02-16T12:22:44.933Z,15.00
2019-02-16T12:25:26.283Z,16.07
2019-02-16T12:28:14.170Z,15.37
2019-02-16T12:30:53.044Z,15.23
2019-02-16T12:33:43.463Z,19.50
2019-02-16T12:36:40.714Z,17.23
2019-02-16T12:39:31.442Z,15.73
2019-02-16T12:42:10.214Z,16.77
2019-02-16T12:45:01.417Z,16.20
2019-02-16T12:48:04.710Z,18.33
2019-02-16T12:50:39.564Z,17.93
2019-02-16T12:53:26.373Z,17.50
2019-02-16T12:56:09.759Z,18.43
2019-02-16T12:59:03.820Z,18.03
2019-02-16T13:01:40.088Z,19.23
2019-02-16T13:04:31.044Z,14.97
2019-02-16T13:07:21.973Z,15.87
2019-02-16T13:10:10.223Z,15.33
2019-02-16T13:13:07.500Z,18.87
2019-02-16T13:15:58.569Z,17.80
2019-02-16T13:19:02.005Z,14.00
2019-02-16T13:21:35.974Z,14.17
2019-02-16T13:24:29.529Z,18.53
2019-02-16T13:27:14.019Z,13.93
2019-02-16T13:30:08.152Z,16.87
2019-02-16T13:33:08.295Z,15.77
2019-02-16T13:36:10.348Z,16.73
2019-02-16T13:38:57.203Z,16.53
2019-02-16T13:41:48.593Z,14.53
2019-02-16T13:44:27.452Z,22.43
2019-02-16T13:47:13.880Z,27.17
2019-02-16T13:50:05.111Z,129.67
2019-02-16T13:52:46.051Z,112.07
2019-02-16T13:55:36.111Z,186.20
2019-02-16T13:58:19.673Z,282.27
2019-02-16T14:01:07.979Z,516.63
2019-02-16T14:03:48.065Z,112.83
2019-02-16T14:06:26.326Z,29.13
2019-02-16T14:09:01.056Z,18.67
2019-02-16T14:11:45.063Z,75.07
2019-02-16T14:14:32.088Z,32.30
2019-02-16T14:17:23.293Z,20.33
2019-02-16T14:19:52.471Z,16.77
2019-02-16T14:22:21.670Z,14.97
2019-02-16T14:24:54.248Z,19.77
2019-02-16T14:27:23.464Z,16.47
2019-02-16T14:29:52.668Z,47.93
2019-02-16T14:32:21.832Z,85.80
2019-02-16T14:34:50.999Z,19.33
2019-02-16T14:37:37.883Z,18.23
2019-02-16T14:40:07.096Z,17.80
2019-02-16T14:42:36.277Z,15.10
2019-02-16T14:45:06.201Z,14.57
2019-02-16T14:47:35.358Z,17.07
2019-02-16T14:50:04.802Z,17.37
2019-02-16T14:52:33.932Z,15.90
2019-02-16T14:55:05.904Z,17.67
2019-02-16T14:57:35.041Z,16.03
2019-02-16T15:00:04.348Z,15.67
2019-02-16T15:02:33.541Z,14.73
2019-02-16T15:05:02.736Z,16.53
2019-02-16T15:07:31.948Z,16.23
2019-02-16T15:10:01.176Z,16.07
2019-02-16T15:12:30.320Z,15.57
2019-02-16T15:14:59.489Z,17.77
2019-02-16T15:17:28.831Z,16.07
2019-02-16T15:19:57.963Z,15.17
2019-02-16T15:22:27.120Z,16.43
2019-02-16T15:24:56.256Z,12.93
2019-02-16T15:27:25.451Z,14.97
2019-02-16T15:29:54.632Z,14.67
2019-02-16T15:32:23.783Z,15.67
2019-02-16T15:34:52.954Z,14.23
2019-02-16T15:37:22.099Z,14.83
2019-02-16T15:39:51.274Z,15.80
2019-02-16T15:42:20.414Z,17.80
2019-02-16T15:44:49.561Z,14.23
2019-02-16T15:47:18.699Z,13.07
2019-02-16T15:49:47.852Z,17.40
2019-02-16T15:52:17.032Z,19.93
2019-02-16T15:54:46.166Z,15.83
2019-02-16T15:57:15.367Z,12.50
2019-02-16T15:59:44.566Z,11.40
2019-02-16T16:02:13.750Z,14.27
2019-02-16T16:04:42.918Z,12.97
2019-02-16T16:07:17.231Z,17.67
2019-02-16T16:09:56.265Z,18.93
2019-02-16T16:12:40.407Z,15.50
2019-02-16T16:15:43.105Z,13.73
2019-02-16T16:18:28.354Z,13.77
2019-02-16T16:21:11.623Z,12.40
2019-02-16T16:24:02.837Z,11.13
2019-02-16T16:26:49.873Z,12.07
2019-02-16T16:29:44.241Z,12.63
2019-02-16T16:32:31.267Z,16.13
2019-02-16T16:35:22.591Z,11.77
2019-02-16T16:38:19.879Z,10.10
2019-02-16T16:41:23.137Z,9.70
2019-02-16T16:43:59.795Z,10.43
2019-02-16T16:46:47.752Z,11.80
2019-02-16T16:49:25.228Z,11.33
2019-02-16T16:52:31.506Z,15.13
2019-02-16T16:55:19.749Z,13.93
2019-02-16T16:58:01.980Z,13.37
2019-02-16T17:00:44.184Z,13.33
2019-02-16T17:03:20.059Z,12.70
2019-02-16T17:05:58.924Z,34.57
2019-02-16T17:08:47.132Z,20.57
2019-02-16T17:11:33.866Z,14.63
2019-02-16T17:14:14.220Z,13.80
2019-02-16T17:17:14.685Z,17.13
2019-02-16T17:19:59.991Z,12.90
2019-02-16T17:22:49.006Z,12.50
2019-02-16T17:25:52.539Z,10.80
2019-02-16T17:28:47.819Z,8.07
2019-02-16T17:31:35.475Z,8.43
2019-02-16T17:34:29.716Z,11.90
2019-02-16T17:37:36.181Z,12.47
2019-02-16T17:40:12.364Z,13.60
2019-02-16T17:43:02.824Z,13.03
2019-02-16T17:45:56.836Z,12.47
2019-02-16T17:48:46.355Z,18.73
2019-02-16T17:51:31.630Z,21.57
2019-02-16T17:54:37.924Z,19.03
2019-02-16T17:57:13.313Z,12.60
2019-02-16T17:59:48.226Z,13.87
2019-02-16T18:02:25.833Z,16.70
2019-02-16T18:05:01.127Z,13.23
2019-02-16T18:07:51.712Z,12.33
2019-02-16T18:10:38.736Z,13.50
2019-02-16T18:13:33.674Z,13.67
2019-02-16T18:16:27.935Z,11.60
2019-02-16T18:19:08.960Z,10.13
2019-02-16T18:21:43.167Z,9.47
2019-02-16T18:24:40.455Z,11.03
2019-02-16T18:27:36.699Z,11.97
2019-02-16T18:30:24.114Z,10.20
2019-02-16T18:33:18.548Z,9.07
2019-02-16T18:35:56.723Z,11.60
2019-02-16T18:38:50.091Z,13.27
2019-02-16T18:41:44.971Z,11.60
2019-02-16T18:44:51.504Z,16.00
2019-02-16T18:47:33.004Z,14.80
2019-02-16T18:50:21.297Z,13.03
2019-02-16T18:53:06.532Z,12.40
2019-02-16T18:55:54.745Z,13.20
2019-02-16T18:58:42.920Z,15.40
2019-02-16T19:01:37.353Z,13.03
2019-02-16T19:04:25.454Z,12.17
2019-02-16T19:07:00.113Z,11.43
2019-02-16T19:09:48.327Z,11.10
2019-02-16T19:12:26.468Z,10.87
2019-02-16T19:15:17.394Z,10.50
2019-02-16T19:18:04.159Z,12.90
2019-02-16T19:21:07.536Z,15.93
2019-02-16T19:23:55.745Z,20.03
2019-02-16T19:26:52.843Z,16.97
2019-02-16T19:29:50.079Z,15.93
2019-02-16T19:32:28.528Z,14.70
2019-02-16T19:35:07.254Z,13.93
2019-02-16T19:37:49.422Z,12.33
2019-02-16T19:40:37.634Z,14.20
2019-02-16T19:43:17.805Z,13.53
2019-02-16T19:46:05.054Z,14.20
2019-02-16T19:48:55.688Z,15.23
2019-02-16T19:51:41.582Z,15.67
2019-02-16T19:54:33.356Z,14.67
2019-02-16T19:57:15.467Z,13.77
2019-02-16T20:00:02.624Z,13.03
2019-02-16T20:03:00.445Z,12.73
2019-02-16T20:05:51.688Z,14.17
2019-02-16T20:08:38.511Z,15.97
2019-02-16T20:11:25.315Z,17.10
2019-02-16T20:14:21.564Z,15.63
2019-02-16T20:17:10.199Z,17.97
2019-02-16T20:20:10.480Z,15.43
2019-02-16T20:23:04.448Z,16.53
2019-02-16T20:25:44.386Z,14.90
2019-02-16T20:28:35.497Z,18.13
2019-02-16T20:31:10.637Z,17.40
2019-02-16T20:33:52.576Z,14.73
2019-02-16T20:36:39.413Z,13.40
2019-02-16T20:39:17.507Z,14.60
2019-02-16T20:42:10.806Z,13.73
2019-02-16T20:44:57.962Z,15.73
2019-02-16T20:47:33.582Z,15.93
2019-02-16T20:50:36.797Z,14.97
2019-02-16T20:53:20.009Z,15.23
2019-02-16T20:55:58.416Z,15.63
2019-02-16T20:58:38.773Z,16.20
2019-02-16T21:01:25.955Z,16.23
2019-02-16T21:04:12.266Z,17.03
2019-02-16T21:07:00.447Z,15.67
2019-02-16T21:09:41.224Z,18.63
2019-02-16T21:12:29.382Z,26.10
2019-02-16T21:15:17.665Z,27.60
2019-02-16T21:17:58.219Z,23.87
2019-02-16T21:20:46.425Z,25.10
2019-02-16T21:23:52.978Z,24.20
2019-02-16T21:26:36.486Z,26.33
2019-02-16T21:29:23.033Z,23.93
2019-02-16T21:32:09.883Z,23.30
2019-02-16T21:34:58.065Z,26.03
2019-02-16T21:37:46.380Z,28.50
2019-02-16T21:40:27.247Z,23.47
2019-02-16T21:43:07.320Z,25.30
2019-02-16T21:45:48.767Z,22.80
2019-02-16T21:48:39.971Z,24.03
2019-02-16T21:51:20.788Z,26.10
2019-02-16T21:54:07.315Z,23.03
2019-02-16T21:57:13.829Z,22.33
2019-02-16T21:59:57.009Z,22.40
2019-02-16T22:02:45.179Z,23.77
2019-02-16T22:05:22.548Z,24.03
2019-02-16T22:08:11.324Z,23.53
2019-02-16T22:11:14.847Z,20.70
2019-02-16T22:13:43.988Z,20.67
2019-02-16T22:16:13.132Z,18.13
2019-02-16T22:18:42.327Z,19.97
2019-02-16T22:21:11.465Z,20.27
2019-02-16T22:23:40.711Z,23.27
2019-02-16T22:26:09.920Z,19.43
2019-02-16T22:28:39.097Z,21.70
2019-02-16T22:31:08.244Z,21.03
2019-02-16T22:33:37.452Z,19.10
2019-02-16T22:36:06.587Z,17.53
2019-02-16T22:38:35.756Z,22.80
2019-02-16T22:41:04.950Z,23.17
2019-02-16T22:43:34.419Z,20.83
2019-02-16T22:46:03.569Z,23.47
2019-02-16T22:48:32.678Z,20.47
2019-02-16T22:51:01.842Z,20.50
2019-02-16T22:53:30.972Z,20.20
2019-02-16T22:56:00.104Z,21.37
2019-02-16T22:58:29.407Z,22.27
2019-02-16T23:00:58.803Z,18.27
2019-02-16T23:03:27.947Z,19.03
2019-02-16T23:05:57.098Z,18.43
2019-02-16T23:08:26.366Z,19.17
2019-02-16T23:10:55.520Z,19.60
2019-02-16T23:13:24.660Z,19.77
2019-02-16T23:15:53.820Z,18.60
2019-02-16T23:18:22.948Z,21.87
2019-02-16T23:20:52.105Z,18.17
2019-02-16T23:23:21.288Z,21.13
2019-02-16T23:25:50.408Z,22.77
2019-02-16T23:28:19.543Z,21.23
2019-02-16T23:30:48.674Z,20.97
2019-02-16T23:33:17.840Z,24.67
2019-02-16T23:35:47.028Z,23.03
2019-02-16T23:38:16.174Z,23.30
2019-02-16T23:40:45.303Z,27.57
2019-02-16T23:43:14.505Z,24.97
2019-02-16T23:45:43.721Z,22.27
2019-02-16T23:48:12.881Z,23.13
2019-02-16T23:50:42.016Z,23.00
2019-02-16T23:53:11.228Z,21.67
2019-02-16T23:55:40.379Z,21.23
2019-02-16T23:58:09.619Z,23.90
